createdAt,value
2023-03-31T00:02:30.164Z,12.00
2023-03-31T00:05:18.454Z,12.00
2023-03-31T00:08:03.942Z,12.00
2023-03-31T00:10:49.203Z,11.90
2023-03-31T00:13:34.928Z,11.90
2023-03-31T00:16:21.066Z,11.90
2023-03-31T00:19:10.250Z,11.90
2023-03-31T00:21:55.545Z,11.90
2023-03-31T00:24:41.398Z,11.90
2023-03-31T00:27:28.340Z,12.00
2023-03-31T00:30:14.605Z,12.00
2023-03-31T00:33:01.126Z,12.00
2023-03-31T00:35:50.917Z,12.00
2023-03-31T00:38:36.405Z,12.00
2023-03-31T00:41:22.664Z,12.00
2023-03-31T00:44:19.236Z,12.00
2023-03-31T00:47:13.041Z,12.00
2023-03-31T00:49:58.857Z,12.10
2023-03-31T00:52:47.401Z,12.10
2023-03-31T00:55:41.605Z,12.10
2023-03-31T00:58:29.824Z,12.20
2023-03-31T01:01:19.582Z,12.20
2023-03-31T01:04:07.623Z,12.20
2023-03-31T01:07:11.332Z,12.30
2023-03-31T01:10:03.615Z,12.30
2023-03-31T01:12:53.690Z,12.40
2023-03-31T01:15:39.632Z,12.40
2023-03-31T01:18:25.690Z,12.50
2023-03-31T01:21:47.312Z,12.50
2023-03-31T01:25:07.112Z,12.60
2023-03-31T01:28:40.217Z,12.70
2023-03-31T01:31:26.017Z,12.90
2023-03-31T01:34:43.866Z,12.80
2023-03-31T01:37:48.916Z,12.90
2023-03-31T01:40:47.593Z,13.00
2023-03-31T01:43:55.732Z,13.00
2023-03-31T01:47:05.213Z,12.90
2023-03-31T01:50:13.675Z,12.90
2023-03-31T01:53:31.257Z,12.80
2023-03-31T01:56:37.234Z,12.80
2023-03-31T01:59:42.532Z,12.80
2023-03-31T02:02:41.154Z,12.70
2023-03-31T02:05:33.051Z,12.70
2023-03-31T02:08:26.376Z,12.60
2023-03-31T02:11:13.391Z,12.60
2023-03-31T02:14:02.112Z,12.60
2023-03-31T02:16:58.570Z,12.50
2023-03-31T02:19:51.909Z,12.60
2023-03-31T02:22:41.644Z,12.50
2023-03-31T02:25:35.361Z,12.50
2023-03-31T02:28:26.440Z,12.50
2023-03-31T02:31:31.229Z,12.50
2023-03-31T02:34:16.880Z,12.50
2023-03-31T02:37:02.902Z,12.40
2023-03-31T02:39:52.177Z,12.30
2023-03-31T02:42:39.526Z,12.30
2023-03-31T02:45:46.404Z,12.20
2023-03-31T02:48:40.183Z,12.20
2023-03-31T02:51:37.285Z,12.20
2023-03-31T02:54:40.599Z,12.10
2023-03-31T02:57:28.794Z,12.10
2023-03-31T03:00:35.771Z,12.10
2023-03-31T03:03:37.582Z,12.20
2023-03-31T03:06:59.969Z,12.20
2023-03-31T03:10:03.873Z,12.20
2023-03-31T03:13:27.501Z,12.20
2023-03-31T03:16:21.756Z,12.20
2023-03-31T03:19:08.503Z,12.20
2023-03-31T03:21:56.666Z,12.20
2023-03-31T03:24:42.610Z,12.20
2023-03-31T03:27:29.087Z,12.20
2023-03-31T03:30:15.287Z,12.20
2023-03-31T03:33:00.554Z,12.20
2023-03-31T03:35:46.409Z,12.10
2023-03-31T03:38:33.874Z,12.10
2023-03-31T03:41:22.181Z,12.00
2023-03-31T03:44:08.276Z,12.00
2023-03-31T03:46:56.699Z,12.00
2023-03-31T03:49:43.704Z,12.00
2023-03-31T03:52:31.929Z,12.00
2023-03-31T03:55:17.899Z,12.00
2023-03-31T03:58:03.035Z,12.00
2023-03-31T04:00:48.850Z,12.00
2023-03-31T04:03:36.634Z,12.10
2023-03-31T04:06:22.124Z,12.10
2023-03-31T04:09:08.262Z,12.10
2023-03-31T04:11:53.413Z,12.10
2023-03-31T04:14:39.047Z,12.20
2023-03-31T04:17:37.386Z,12.20
2023-03-31T04:20:27.901Z,12.20
2023-03-31T04:23:15.160Z,12.20
2023-03-31T04:26:02.835Z,12.20
2023-03-31T04:28:50.802Z,12.20
2023-03-31T04:31:43.294Z,12.10
2023-03-31T04:34:35.642Z,12.10
2023-03-31T04:37:22.729Z,12.10
2023-03-31T04:40:09.647Z,12.10
2023-03-31T04:42:54.921Z,12.10
2023-03-31T04:45:40.557Z,12.10
2023-03-31T04:48:26.420Z,12.10
2023-03-31T04:51:11.683Z,12.10
2023-03-31T04:53:58.587Z,12.10
2023-03-31T04:56:44.284Z,12.10
2023-03-31T04:59:32.382Z,12.10
2023-03-31T05:02:25.193Z,12.10
2023-03-31T05:05:12.596Z,12.10
2023-03-31T05:07:57.900Z,12.10
2023-03-31T05:10:43.550Z,12.10
2023-03-31T05:13:29.243Z,12.10
2023-03-31T05:16:16.561Z,12.10
2023-03-31T05:19:02.864Z,12.10
2023-03-31T05:21:51.133Z,12.00
2023-03-31T05:24:36.706Z,12.10
2023-03-31T05:27:21.941Z,12.10
2023-03-31T05:30:08.399Z,12.10
2023-03-31T05:32:57.052Z,12.00
2023-03-31T05:35:42.205Z,12.00
2023-03-31T05:38:29.238Z,12.10
2023-03-31T05:41:17.023Z,12.10
2023-03-31T05:44:05.094Z,12.10
2023-03-31T05:46:52.067Z,12.00
2023-03-31T05:49:38.496Z,12.10
2023-03-31T05:52:43.888Z,12.10
2023-03-31T05:55:29.622Z,12.10
2023-03-31T05:58:18.740Z,12.10
2023-03-31T06:01:07.723Z,12.20
2023-03-31T06:03:56.569Z,12.30
2023-03-31T06:06:42.987Z,12.30
2023-03-31T06:09:31.247Z,12.30
2023-03-31T06:12:16.843Z,12.20
2023-03-31T06:15:02.888Z,12.30
2023-03-31T06:17:48.588Z,12.30
2023-03-31T06:20:34.187Z,12.30
2023-03-31T06:23:22.261Z,12.20
2023-03-31T06:26:08.790Z,12.20
2023-03-31T06:28:57.960Z,12.10
2023-03-31T06:31:43.320Z,12.00
2023-03-31T06:34:28.963Z,12.00
2023-03-31T06:37:14.692Z,12.00
2023-03-31T06:39:59.896Z,12.00
2023-03-31T06:42:45.419Z,12.00
2023-03-31T06:45:36.988Z,12.00
2023-03-31T06:48:26.247Z,12.00
2023-03-31T06:51:13.095Z,12.00
2023-03-31T06:53:58.612Z,12.10
2023-03-31T06:56:44.364Z,12.10
2023-03-31T06:59:29.565Z,12.10
2023-03-31T07:02:15.249Z,12.20
2023-03-31T07:05:00.663Z,12.20
2023-03-31T07:07:48.462Z,12.30
2023-03-31T07:10:35.162Z,12.40
2023-03-31T07:13:20.789Z,12.40
2023-03-31T07:16:07.307Z,12.40
2023-03-31T07:18:54.792Z,12.50
2023-03-31T07:21:40.435Z,12.60
2023-03-31T07:24:30.945Z,12.60
2023-03-31T07:27:16.530Z,12.70
2023-03-31T07:30:03.427Z,12.70
2023-03-31T07:32:50.269Z,12.70
2023-03-31T07:35:39.569Z,12.70
2023-03-31T07:38:25.035Z,12.80
2023-03-31T07:41:13.078Z,12.90
2023-03-31T07:43:59.415Z,13.00
2023-03-31T07:46:44.898Z,13.10
2023-03-31T07:49:34.620Z,13.10
2023-03-31T07:52:21.587Z,13.20
2023-03-31T07:55:10.795Z,13.30
2023-03-31T07:57:57.286Z,13.40
2023-03-31T08:00:42.746Z,13.50
2023-03-31T08:03:28.420Z,13.50
2023-03-31T08:06:19.905Z,13.50
2023-03-31T08:09:08.137Z,13.50
2023-03-31T08:11:55.901Z,13.50
2023-03-31T08:14:41.954Z,13.50
2023-03-31T08:17:27.444Z,13.50
2023-03-31T08:20:13.475Z,13.50
2023-03-31T08:22:59.038Z,13.50
2023-03-31T08:25:44.835Z,13.40
2023-03-31T08:28:30.674Z,13.40
2023-03-31T08:31:17.332Z,13.50
2023-03-31T08:34:03.181Z,13.50
2023-03-31T08:36:51.417Z,13.60
2023-03-31T08:39:37.308Z,13.60
2023-03-31T08:42:50.486Z,13.60
2023-03-31T08:45:43.919Z,13.70
2023-03-31T08:48:48.965Z,13.90
2023-03-31T08:51:38.186Z,14.00
2023-03-31T08:54:33.821Z,14.10
2023-03-31T08:58:01.023Z,14.20
2023-03-31T09:01:17.105Z,14.30
2023-03-31T09:04:28.564Z,14.50
2023-03-31T09:07:41.672Z,14.60
2023-03-31T09:10:52.787Z,14.70
2023-03-31T09:14:08.874Z,14.70
2023-03-31T09:17:00.401Z,14.90
2023-03-31T09:19:59.188Z,15.20
2023-03-31T09:22:52.503Z,15.20
2023-03-31T09:25:41.476Z,15.30
2023-03-31T09:28:34.966Z,15.30
2023-03-31T09:31:22.100Z,15.20
2023-03-31T09:34:14.912Z,15.00
2023-03-31T09:37:00.563Z,15.00
2023-03-31T09:39:46.418Z,15.00
2023-03-31T09:42:31.757Z,15.10
2023-03-31T09:45:21.724Z,15.00
2023-03-31T09:48:23.478Z,15.10
2023-03-31T09:51:18.315Z,15.00
2023-03-31T09:54:16.004Z,15.10
2023-03-31T09:57:03.095Z,15.20
2023-03-31T09:59:52.166Z,15.10
2023-03-31T10:02:40.623Z,15.00
2023-03-31T10:05:48.670Z,15.20
2023-03-31T10:08:57.697Z,15.10
2023-03-31T10:12:03.477Z,15.10
2023-03-31T10:14:51.584Z,15.10
2023-03-31T10:17:54.755Z,15.20
2023-03-31T10:20:49.121Z,15.10
2023-03-31T10:23:36.004Z,15.10
2023-03-31T10:26:29.502Z,15.00
2023-03-31T10:29:21.976Z,14.80
2023-03-31T10:32:19.536Z,14.80
2023-03-31T10:35:25.040Z,14.70
2023-03-31T10:38:12.115Z,14.60
2023-03-31T10:40:59.673Z,14.70
2023-03-31T10:43:51.527Z,14.40
2023-03-31T10:46:54.372Z,14.20
2023-03-31T10:49:41.832Z,14.10
2023-03-31T10:52:27.901Z,14.00
2023-03-31T10:55:18.461Z,14.10
2023-03-31T10:58:17.248Z,14.00
2023-03-31T11:01:33.163Z,14.00
2023-03-31T11:04:24.723Z,14.00
2023-03-31T11:07:23.674Z,13.90
2023-03-31T11:10:28.117Z,13.90
2023-03-31T11:13:42.026Z,14.00
2023-03-31T11:16:51.308Z,14.10
2023-03-31T11:20:11.290Z,14.10
2023-03-31T11:23:25.597Z,14.10
2023-03-31T11:26:22.882Z,14.10
2023-03-31T11:29:23.173Z,14.10
2023-03-31T11:32:44.597Z,14.10
2023-03-31T11:35:59.956Z,14.20
2023-03-31T11:39:21.981Z,14.20
2023-03-31T11:42:16.280Z,14.30
2023-03-31T11:45:18.263Z,14.30
2023-03-31T11:48:10.639Z,14.40
2023-03-31T11:50:57.510Z,14.50
2023-03-31T11:53:45.627Z,14.50
2023-03-31T11:56:37.112Z,14.40
2023-03-31T11:59:27.474Z,14.30
2023-03-31T12:02:48.384Z,14.20
2023-03-31T12:05:37.356Z,14.20
2023-03-31T12:08:58.756Z,14.20
2023-03-31T12:12:09.880Z,14.10
2023-03-31T12:15:12.313Z,14.10
2023-03-31T12:18:06.040Z,14.00
2023-03-31T12:20:57.616Z,14.00
2023-03-31T12:23:45.811Z,14.00
2023-03-31T12:27:02.185Z,14.10
2023-03-31T12:29:51.361Z,14.10
2023-03-31T12:32:44.882Z,14.20
2023-03-31T12:35:59.262Z,14.30
2023-03-31T12:39:02.182Z,14.20
2023-03-31T12:42:20.208Z,14.10
2023-03-31T12:45:24.502Z,14.00
2023-03-31T12:48:50.335Z,14.10
2023-03-31T12:51:48.941Z,14.20
2023-03-31T12:55:09.754Z,14.30
2023-03-31T12:58:29.594Z,14.40
2023-03-31T13:01:25.955Z,14.50
2023-03-31T13:04:22.313Z,14.40
2023-03-31T13:07:28.904Z,14.30
2023-03-31T13:10:14.764Z,14.50
2023-03-31T13:13:20.554Z,14.70
2023-03-31T13:16:05.883Z,14.70
2023-03-31T13:18:54.126Z,14.80
2023-03-31T13:21:59.420Z,14.70
2023-03-31T13:24:45.004Z,14.60
2023-03-31T13:27:34.216Z,14.40
2023-03-31T13:30:41.453Z,14.20
2023-03-31T13:33:42.666Z,14.00
2023-03-31T13:36:34.489Z,13.70
2023-03-31T13:39:29.012Z,13.50
2023-03-31T13:42:38.901Z,13.30
2023-03-31T13:45:42.019Z,13.20
2023-03-31T13:48:54.502Z,13.10
2023-03-31T13:51:59.691Z,13.00
2023-03-31T13:55:07.124Z,12.90
2023-03-31T13:58:05.409Z,12.80
2023-03-31T14:01:16.480Z,12.70
2023-03-31T14:04:11.321Z,12.60
2023-03-31T14:07:12.614Z,12.80
2023-03-31T14:09:59.606Z,12.90
2023-03-31T14:12:45.051Z,12.80
2023-03-31T14:15:30.428Z,12.80
2023-03-31T14:18:26.482Z,12.90
2023-03-31T14:21:27.828Z,13.00
2023-03-31T14:24:43.910Z,13.00
2023-03-31T14:27:47.781Z,13.10
2023-03-31T14:31:04.994Z,13.20
2023-03-31T14:34:28.720Z,13.20
2023-03-31T14:37:17.759Z,13.20
2023-03-31T14:40:07.314Z,13.00
2023-03-31T14:42:55.713Z,13.00
2023-03-31T14:45:43.767Z,12.90
2023-03-31T14:48:33.104Z,13.00
2023-03-31T14:51:30.596Z,12.90
2023-03-31T14:54:18.524Z,12.80
2023-03-31T14:57:05.895Z,12.80
2023-03-31T14:59:54.031Z,12.80
2023-03-31T15:02:44.346Z,12.80
2023-03-31T15:05:44.844Z,12.80
2023-03-31T15:08:32.315Z,12.90
2023-03-31T15:11:21.083Z,12.90
2023-03-31T15:14:09.188Z,12.90
2023-03-31T15:16:57.271Z,12.80
2023-03-31T15:19:42.530Z,12.80
2023-03-31T15:22:30.141Z,12.90
2023-03-31T15:25:18.452Z,12.90
2023-03-31T15:28:07.626Z,12.80
2023-03-31T15:31:06.857Z,12.90
2023-03-31T15:33:58.991Z,12.90
2023-03-31T15:36:44.783Z,12.90
2023-03-31T15:39:32.982Z,13.00
2023-03-31T15:42:19.577Z,13.00
2023-03-31T15:45:38.876Z,13.10
2023-03-31T15:48:36.089Z,13.10
2023-03-31T15:51:31.122Z,13.30
2023-03-31T15:54:38.300Z,13.30
2023-03-31T15:57:32.928Z,13.30
2023-03-31T16:00:52.521Z,13.10
2023-03-31T16:03:41.287Z,13.00
2023-03-31T16:06:57.889Z,13.00
2023-03-31T16:10:04.599Z,12.90
2023-03-31T16:13:02.964Z,12.90
2023-03-31T16:15:51.762Z,12.90
2023-03-31T16:18:41.910Z,12.90
2023-03-31T16:21:35.556Z,12.80
2023-03-31T16:24:28.714Z,12.80
2023-03-31T16:27:14.759Z,12.80
2023-03-31T16:30:20.736Z,12.60
2023-03-31T16:33:07.508Z,12.70
2023-03-31T16:35:56.127Z,12.70
2023-03-31T16:38:42.022Z,12.70
2023-03-31T16:41:36.275Z,12.70
2023-03-31T16:44:22.383Z,12.60
2023-03-31T16:47:07.891Z,12.50
2023-03-31T16:49:53.253Z,12.50
2023-03-31T16:52:39.753Z,12.50
2023-03-31T16:55:26.007Z,12.40
2023-03-31T16:58:11.914Z,12.40
2023-03-31T17:00:58.618Z,12.40
2023-03-31T17:03:47.595Z,12.50
2023-03-31T17:06:33.257Z,12.50
2023-03-31T17:09:21.577Z,12.40
2023-03-31T17:12:06.936Z,12.40
2023-03-31T17:14:52.596Z,12.40
2023-03-31T17:17:38.416Z,12.40
2023-03-31T17:20:24.890Z,12.40
2023-03-31T17:23:16.262Z,12.30
2023-03-31T17:26:02.119Z,12.30
2023-03-31T17:28:47.890Z,12.30
2023-03-31T17:31:33.363Z,12.40
2023-03-31T17:34:19.074Z,12.40
2023-03-31T17:37:06.186Z,12.50
2023-03-31T17:39:52.694Z,12.50
2023-03-31T17:42:38.112Z,12.40
2023-03-31T17:45:23.982Z,12.30
2023-03-31T17:48:09.985Z,12.30
2023-03-31T17:50:57.481Z,12.30
2023-03-31T17:53:49.121Z,12.20
2023-03-31T17:56:34.768Z,12.20
2023-03-31T17:59:20.535Z,12.20
2023-03-31T18:02:06.870Z,12.10
2023-03-31T18:04:52.641Z,12.20
2023-03-31T18:07:38.177Z,12.20
2023-03-31T18:10:23.788Z,12.10
2023-03-31T18:13:09.736Z,12.20
2023-03-31T18:15:55.304Z,12.20
2023-03-31T18:18:41.619Z,12.20
2023-03-31T18:21:30.137Z,12.20
2023-03-31T18:24:17.100Z,12.20
2023-03-31T18:27:02.813Z,12.10
2023-03-31T18:29:47.954Z,12.10
2023-03-31T18:32:33.661Z,12.10
2023-03-31T18:35:20.036Z,12.20
2023-03-31T18:38:08.127Z,12.20
2023-03-31T18:40:54.394Z,12.10
2023-03-31T18:43:39.731Z,12.10
2023-03-31T18:46:25.612Z,12.10
2023-03-31T18:49:11.969Z,12.10
2023-03-31T18:51:58.682Z,12.10
2023-03-31T18:54:44.347Z,12.00
2023-03-31T18:57:30.070Z,12.00
2023-03-31T19:00:15.967Z,11.90
2023-03-31T19:03:02.056Z,11.90
2023-03-31T19:05:47.852Z,12.00
2023-03-31T19:08:35.515Z,11.90
2023-03-31T19:11:20.988Z,11.90
2023-03-31T19:14:06.808Z,11.90
2023-03-31T19:16:52.382Z,11.90
2023-03-31T19:19:37.844Z,11.90
2023-03-31T19:22:25.461Z,11.90
2023-03-31T19:25:17.039Z,12.00
2023-03-31T19:28:05.238Z,12.00
2023-03-31T19:30:53.139Z,12.00
2023-03-31T19:33:38.669Z,12.00
2023-03-31T19:36:29.495Z,11.90
2023-03-31T19:39:14.930Z,11.90
2023-03-31T19:42:00.807Z,11.90
2023-03-31T19:44:46.388Z,12.00
2023-03-31T19:47:32.106Z,12.00
2023-03-31T19:50:17.615Z,11.90
2023-03-31T19:53:03.353Z,11.90
2023-03-31T19:56:00.379Z,12.00
2023-03-31T19:58:47.197Z,12.00
2023-03-31T20:01:33.100Z,11.90
2023-03-31T20:04:19.880Z,11.90
2023-03-31T20:07:06.609Z,11.90
2023-03-31T20:09:52.345Z,11.90
2023-03-31T20:12:40.641Z,12.00
2023-03-31T20:15:26.065Z,12.00
2023-03-31T20:18:11.547Z,12.00
2023-03-31T20:21:11.244Z,12.00
2023-03-31T20:23:57.256Z,12.00
2023-03-31T20:26:45.133Z,11.90
2023-03-31T20:29:30.950Z,12.00
2023-03-31T20:32:17.295Z,12.00
2023-03-31T20:35:03.117Z,11.90
2023-03-31T20:37:48.324Z,11.90
2023-03-31T20:40:33.831Z,11.90
2023-03-31T20:43:19.354Z,12.00
2023-03-31T20:46:09.004Z,11.90
2023-03-31T20:48:57.150Z,11.90
2023-03-31T20:51:42.686Z,11.90
2023-03-31T20:54:28.175Z,11.90
2023-03-31T20:57:13.548Z,11.80
2023-03-31T21:00:01.774Z,11.90
2023-03-31T21:02:47.076Z,11.80
2023-03-31T21:05:32.937Z,11.90
2023-03-31T21:08:19.150Z,11.90
2023-03-31T21:11:06.021Z,11.90
2023-03-31T21:13:53.174Z,11.90
2023-03-31T21:16:40.058Z,11.90
2023-03-31T21:19:26.439Z,11.90
2023-03-31T21:22:11.826Z,11.90
2023-03-31T21:24:57.332Z,12.00
2023-03-31T21:27:42.545Z,11.90
2023-03-31T21:30:28.202Z,12.00
2023-03-31T21:33:17.553Z,11.90
2023-03-31T21:36:02.905Z,12.00
2023-03-31T21:38:57.244Z,12.00
2023-03-31T21:41:45.588Z,12.00
2023-03-31T21:44:31.228Z,12.10
2023-03-31T21:47:19.612Z,12.00
2023-03-31T21:50:05.665Z,12.10
2023-03-31T21:52:51.370Z,12.00
2023-03-31T21:55:38.129Z,12.00
2023-03-31T21:58:31.830Z,12.00
2023-03-31T22:01:27.913Z,12.00
2023-03-31T22:04:14.677Z,12.00
2023-03-31T22:07:00.020Z,11.90
2023-03-31T22:09:45.886Z,12.00
2023-03-31T22:12:31.909Z,11.90
2023-03-31T22:15:17.856Z,11.90
2023-03-31T22:18:03.313Z,11.90
2023-03-31T22:20:52.337Z,11.90
2023-03-31T22:23:38.489Z,11.90
2023-03-31T22:26:25.811Z,11.90
2023-03-31T22:29:15.908Z,11.90
2023-03-31T22:32:01.498Z,11.90
2023-03-31T22:34:47.137Z,11.90
2023-03-31T22:37:33.811Z,11.90
2023-03-31T22:40:19.601Z,11.90
2023-03-31T22:43:04.966Z,11.90
2023-03-31T22:45:50.598Z,11.90
2023-03-31T22:48:36.105Z,11.80
2023-03-31T22:51:23.232Z,11.80
2023-03-31T22:54:16.068Z,11.90
2023-03-31T22:57:01.662Z,11.90
2023-03-31T22:59:49.574Z,11.90
2023-03-31T23:02:34.907Z,11.80
2023-03-31T23:05:21.764Z,11.90
2023-03-31T23:08:07.278Z,11.80
2023-03-31T23:10:57.794Z,11.80
2023-03-31T23:13:43.423Z,11.70
2023-03-31T23:16:31.321Z,11.70
2023-03-31T23:19:18.415Z,11.70
2023-03-31T23:22:04.046Z,11.70
2023-03-31T23:24:49.674Z,11.70
2023-03-31T23:27:34.697Z,11.70
2023-03-31T23:30:21.736Z,11.70
2023-03-31T23:33:10.256Z,11.70
2023-03-31T23:36:04.963Z,11.60
2023-03-31T23:38:52.929Z,11.70
2023-03-31T23:41:38.206Z,11.60
2023-03-31T23:44:25.132Z,11.60
2023-03-31T23:47:10.620Z,11.60
2023-03-31T23:50:00.340Z,11.60
2023-03-31T23:52:45.448Z,11.60
2023-03-31T23:55:31.349Z,11.50
2023-03-31T23:58:17.302Z,11.50
